createdAt,value
2019-02-05T00:01:13.745Z,101973.39
2019-02-05T00:03:42.905Z,101987.58
2019-02-05T00:06:12.047Z,101993.60
2019-02-05T00:08:41.518Z,102001.31
2019-02-05T00:11:10.713Z,102007.77
2019-02-05T00:13:39.891Z,102005.18
2019-02-05T00:16:09.046Z,101999.57
2019-02-05T00:18:38.485Z,101993.53
2019-02-05T00:21:07.658Z,101999.13
2019-02-05T00:23:37.091Z,101996.10
2019-02-05T00:26:06.703Z,102007.27
2019-02-05T00:28:35.993Z,102005.95
2019-02-05T00:31:07.078Z,102005.52
2019-02-05T00:33:36.204Z,102011.10
2019-02-05T00:36:07.171Z,102018.83
2019-02-05T00:38:36.330Z,102009.75
2019-02-05T00:41:05.810Z,102020.93
2019-02-05T00:43:35.408Z,102018.77
2019-02-05T00:46:04.651Z,102012.31
2019-02-05T00:48:33.808Z,102014.88
2019-02-05T00:51:03.057Z,102018.73
2019-02-05T00:53:32.207Z,102020.00
2019-02-05T00:56:05.217Z,102022.15
2019-02-05T00:58:34.409Z,102017.84
2019-02-05T01:01:03.913Z,102030.30
2019-02-05T01:03:33.353Z,102026.86
2019-02-05T01:06:02.802Z,102012.64
2019-02-05T01:08:32.202Z,102006.63
2019-02-05T01:11:01.519Z,102004.92
2019-02-05T01:13:30.701Z,102006.23
2019-02-05T01:15:59.978Z,102009.20
2019-02-05T01:18:29.245Z,102022.55
2019-02-05T01:20:58.579Z,102024.28
2019-02-05T01:23:28.003Z,102029.44
2019-02-05T01:25:57.126Z,102033.31
2019-02-05T01:28:26.566Z,102035.46
2019-02-05T01:30:55.724Z,102031.59
2019-02-05T01:33:24.928Z,102037.19
2019-02-05T01:35:54.196Z,102039.75
2019-02-05T01:38:23.421Z,102047.08
2019-02-05T01:40:52.653Z,102049.64
2019-02-05T01:43:21.790Z,102048.79
2019-02-05T01:45:51.171Z,102050.50
2019-02-05T01:48:20.327Z,102055.66
2019-02-05T01:50:49.578Z,102064.69
2019-02-05T01:53:18.783Z,102062.54
2019-02-05T01:55:48.136Z,102061.67
2019-02-05T01:58:17.251Z,102064.25
2019-02-05T02:00:46.407Z,102055.65
2019-02-05T02:03:15.678Z,102062.54
2019-02-05T02:05:45.044Z,102059.52
2019-02-05T02:08:14.470Z,102057.80
2019-02-05T02:10:43.698Z,102059.52
2019-02-05T02:13:12.840Z,102063.81
2019-02-05T02:15:42.037Z,102063.81
2019-02-05T02:18:11.247Z,102068.53
2019-02-05T02:20:40.699Z,102056.92
2019-02-05T02:23:09.899Z,102068.53
2019-02-05T02:25:39.064Z,102062.95
2019-02-05T02:28:08.237Z,102058.63
2019-02-05T02:30:38.979Z,102062.07
2019-02-05T02:33:08.486Z,102059.50
2019-02-05T02:35:38.033Z,102069.83
2019-02-05T02:38:07.192Z,102066.38
2019-02-05T02:40:36.356Z,102063.80
2019-02-05T02:43:05.471Z,102066.80
2019-02-05T02:45:34.836Z,102064.66
2019-02-05T02:48:04.291Z,102066.80
2019-02-05T02:50:33.664Z,102064.20
2019-02-05T02:53:02.923Z,102069.80
2019-02-05T02:55:32.091Z,102069.75
2019-02-05T02:58:01.250Z,102077.06
2019-02-05T03:00:30.468Z,102063.72
2019-02-05T03:02:59.627Z,102063.28
2019-02-05T03:05:29.294Z,102060.28
2019-02-05T03:07:58.466Z,102062.86
2019-02-05T03:10:29.599Z,102054.68
2019-02-05T03:12:59.205Z,102060.28
2019-02-05T03:15:28.357Z,102047.42
2019-02-05T03:17:57.653Z,102049.14
2019-02-05T03:20:26.846Z,102053.83
2019-02-05T03:22:56.525Z,102048.29
2019-02-05T03:25:26.195Z,102056.45
2019-02-05T03:27:55.677Z,102059.91
2019-02-05T03:30:25.618Z,102052.58
2019-02-05T03:32:55.591Z,102054.31
2019-02-05T03:35:24.910Z,102056.03
2019-02-05T03:37:54.101Z,102055.59
2019-02-05T03:41:10.354Z,102057.75
2019-02-05T03:43:40.489Z,102054.74
2019-02-05T03:46:14.534Z,102049.16
2019-02-05T03:48:44.221Z,102056.45
2019-02-05T03:51:53.256Z,102050.82
2019-02-05T03:54:49.944Z,102056.84
2019-02-05T03:57:43.836Z,102055.16
2019-02-05T04:00:34.798Z,102064.20
2019-02-05T04:03:32.413Z,102072.77
2019-02-05T04:06:10.482Z,102071.48
2019-02-05T04:09:09.768Z,102076.20
2019-02-05T04:12:06.051Z,102088.25
2019-02-05T04:15:12.307Z,102080.08
2019-02-05T04:18:11.425Z,102080.06
2019-02-05T04:21:34.226Z,102083.94
2019-02-05T04:24:33.363Z,102090.39
2019-02-05T04:27:43.827Z,102083.92
2019-02-05T04:30:48.858Z,102085.65
2019-02-05T04:34:04.138Z,102082.62
2019-02-05T04:37:22.045Z,102086.07
2019-02-05T04:40:23.198Z,102089.07
2019-02-05T04:43:13.022Z,102089.51
2019-02-05T04:46:02.893Z,102089.51
2019-02-05T04:49:24.826Z,102091.22
2019-02-05T04:52:44.135Z,102094.23
2019-02-05T04:55:57.915Z,102098.09
2019-02-05T04:59:10.752Z,102105.42
2019-02-05T05:02:11.157Z,102107.55
2019-02-05T05:05:02.046Z,102098.95
2019-02-05T05:08:18.846Z,102094.64
2019-02-05T05:10:48.066Z,102095.50
2019-02-05T05:13:17.227Z,102104.09
2019-02-05T05:15:46.395Z,102104.06
2019-02-05T05:18:15.734Z,102101.47
2019-02-05T05:20:45.018Z,102099.32
2019-02-05T05:23:14.149Z,102099.73
2019-02-05T05:25:43.428Z,102101.47
2019-02-05T05:28:12.674Z,102100.61
2019-02-05T05:30:41.858Z,102111.78
2019-02-05T05:33:11.420Z,102122.11
2019-02-05T05:35:44.338Z,102117.82
2019-02-05T05:38:11.537Z,102115.20
2019-02-05T05:40:40.691Z,102120.38
2019-02-05T05:43:09.837Z,102125.97
2019-02-05T05:45:38.986Z,102130.27
2019-02-05T05:48:08.179Z,102133.70
2019-02-05T05:50:37.394Z,102133.70
2019-02-05T05:53:06.838Z,102143.12
2019-02-05T05:55:36.018Z,102149.56
2019-02-05T05:58:05.457Z,102144.83
2019-02-05T06:00:34.658Z,102142.67
2019-02-05T06:03:03.897Z,102144.83
2019-02-05T06:05:33.382Z,102147.41
2019-02-05T06:08:02.813Z,102147.39
2019-02-05T06:10:32.038Z,102146.11
2019-02-05T06:13:01.182Z,102140.06
2019-02-05T06:15:30.375Z,102137.48
2019-02-05T06:17:59.555Z,102140.05
2019-02-05T06:20:28.851Z,102139.63
2019-02-05T06:22:57.967Z,102139.63
2019-02-05T06:25:27.211Z,102143.05
2019-02-05T06:27:56.540Z,102140.45
2019-02-05T06:30:25.768Z,102145.19
2019-02-05T06:32:54.971Z,102155.50
2019-02-05T06:35:24.325Z,102152.48
2019-02-05T06:37:53.957Z,102153.32
2019-02-05T06:40:23.325Z,102155.03
2019-02-05T06:42:52.561Z,102157.62
2019-02-05T06:45:21.732Z,102153.29
2019-02-05T06:47:50.949Z,102158.87
2019-02-05T06:50:20.191Z,102161.46
2019-02-05T06:52:49.507Z,102164.85
2019-02-05T06:55:18.644Z,102169.22
2019-02-05T06:57:47.857Z,102168.38
2019-02-05T07:00:26.402Z,102171.39
2019-02-05T07:02:55.564Z,102178.29
2019-02-05T07:05:24.745Z,102177.42
2019-02-05T07:07:54.348Z,102178.72
2019-02-05T07:10:23.794Z,102181.30
2019-02-05T07:12:53.008Z,102180.44
2019-02-05T07:15:22.225Z,102186.46
2019-02-05T07:17:51.399Z,102191.62
2019-02-05T07:20:20.635Z,102198.07
2019-02-05T07:22:49.932Z,102195.94
2019-02-05T07:25:19.421Z,102198.44
2019-02-05T07:27:48.660Z,102196.78
2019-02-05T07:30:22.759Z,102202.75
2019-02-05T07:32:51.926Z,102204.09
2019-02-05T07:35:21.129Z,102207.48
2019-02-05T07:37:50.553Z,102208.77
2019-02-05T07:40:20.371Z,102208.83
2019-02-05T07:42:49.589Z,102221.75
2019-02-05T07:45:20.315Z,102226.48
2019-02-05T07:47:49.956Z,102233.83
2019-02-05T07:50:24.320Z,102244.21
2019-02-05T07:52:53.544Z,102242.02
2019-02-05T07:55:23.166Z,102255.38
2019-02-05T07:57:52.540Z,102253.64
2019-02-05T08:00:24.278Z,102258.81
2019-02-05T08:02:53.723Z,102264.37
2019-02-05T08:05:28.717Z,102268.64
2019-02-05T08:07:58.482Z,102270.89
2019-02-05T08:10:27.666Z,102261.36
2019-02-05T08:12:56.949Z,102269.04
2019-02-05T08:15:28.459Z,102275.45
2019-02-05T08:17:57.787Z,102275.50
2019-02-05T08:20:27.483Z,102279.78
2019-02-05T08:22:57.185Z,102281.12
2019-02-05T08:25:26.364Z,102289.72
2019-02-05T08:27:55.960Z,102296.14
2019-02-05T08:30:30.902Z,102293.16
2019-02-05T08:33:00.095Z,102297.84
2019-02-05T08:35:29.430Z,102297.00
2019-02-05T08:37:58.722Z,102300.86
2019-02-05T08:40:27.911Z,102295.25
2019-02-05T08:42:57.123Z,102292.21
2019-02-05T08:45:28.094Z,102289.16
2019-02-05T08:47:57.314Z,102291.23
2019-02-05T08:50:28.246Z,102305.84
2019-02-05T08:52:57.477Z,102302.41
2019-02-05T08:55:26.667Z,102304.09
2019-02-05T08:57:58.211Z,102309.71
2019-02-05T09:00:30.179Z,102315.23
2019-02-05T09:02:59.389Z,102310.10
2019-02-05T09:05:28.546Z,102319.14
2019-02-05T09:07:57.809Z,102320.87
2019-02-05T09:10:29.605Z,102319.62
2019-02-05T09:12:58.821Z,102322.47
2019-02-05T09:15:29.701Z,102317.28
2019-02-05T09:17:59.309Z,102316.95
2019-02-05T09:20:29.944Z,102324.28
2019-02-05T09:22:59.166Z,102327.70
2019-02-05T09:25:28.394Z,102329.75
2019-02-05T09:27:57.657Z,102330.20
2019-02-05T09:30:29.140Z,102337.90
2019-02-05T09:33:00.094Z,102343.49
2019-02-05T09:35:29.256Z,102343.04
2019-02-05T09:38:04.736Z,102349.95
2019-02-05T09:40:34.151Z,102349.04
2019-02-05T09:43:03.528Z,102354.60
2019-02-05T09:45:33.147Z,102354.21
2019-02-05T09:48:02.641Z,102359.71
2019-02-05T09:50:44.321Z,102361.45
2019-02-05T09:53:04.254Z,102357.50
2019-02-05T09:55:35.974Z,102358.80
2019-02-05T09:58:04.578Z,102362.17
2019-02-05T10:00:36.095Z,102366.86
2019-02-05T10:03:06.406Z,102370.30
2019-02-05T10:05:35.636Z,102371.23
2019-02-05T10:08:05.116Z,102371.16
2019-02-05T10:10:34.455Z,102375.90
2019-02-05T10:13:03.939Z,102372.02
2019-02-05T10:15:35.009Z,102375.45
2019-02-05T10:18:04.661Z,102378.42
2019-02-05T10:20:33.910Z,102384.48
2019-02-05T10:23:05.270Z,102383.17
2019-02-05T10:25:34.447Z,102374.98
2019-02-05T10:28:03.687Z,102379.66
2019-02-05T10:30:38.095Z,102385.69
2019-02-05T10:33:07.980Z,102374.04
2019-02-05T10:35:37.232Z,102381.58
2019-02-05T10:38:06.846Z,102377.91
2019-02-05T10:40:36.188Z,102377.34
2019-02-05T10:43:06.528Z,102380.36
2019-02-05T10:45:36.250Z,102379.43
2019-02-05T10:48:06.967Z,102380.28
2019-02-05T10:50:36.196Z,102384.03
2019-02-05T10:53:05.649Z,102383.99
2019-02-05T10:55:34.901Z,102378.76
2019-02-05T10:58:04.112Z,102381.77
2019-02-05T11:00:33.502Z,102376.15
2019-02-05T11:03:03.644Z,102383.77
2019-02-05T11:05:33.118Z,102385.08
2019-02-05T11:08:03.149Z,102381.60
2019-02-05T11:10:33.688Z,102387.23
2019-02-05T11:13:03.022Z,102383.72
2019-02-05T11:15:32.985Z,102380.72
2019-02-05T11:18:02.636Z,102379.37
2019-02-05T11:20:32.279Z,102381.46
2019-02-05T11:23:02.324Z,102385.75
2019-02-05T11:25:31.571Z,102384.42
2019-02-05T11:28:02.563Z,102383.06
2019-02-05T11:30:36.985Z,102387.30
2019-02-05T11:33:06.333Z,102373.84
2019-02-05T11:35:35.872Z,102382.03
2019-02-05T11:38:06.075Z,102386.73
2019-02-05T11:40:36.097Z,102384.98
2019-02-05T11:43:05.568Z,102385.44
2019-02-05T11:45:34.733Z,102384.20
2019-02-05T11:48:04.525Z,102384.19
2019-02-05T11:50:34.135Z,102377.31
2019-02-05T11:53:03.452Z,102380.34
2019-02-05T11:55:33.318Z,102382.77
2019-02-05T11:58:02.512Z,102387.13
2019-02-05T12:00:35.298Z,102391.90
2019-02-05T12:03:05.072Z,102385.19
2019-02-05T12:05:34.727Z,102387.32
2019-02-05T12:08:04.215Z,102390.31
2019-02-05T12:10:33.487Z,102388.12
2019-02-05T12:13:02.807Z,102389.33
2019-02-05T12:15:32.000Z,102389.12
2019-02-05T12:18:02.160Z,102387.67
2019-02-05T12:20:31.392Z,102391.08
2019-02-05T12:23:03.040Z,102393.61
2019-02-05T12:25:32.329Z,102390.73
2019-02-05T12:28:02.928Z,102386.01
2019-02-05T12:30:44.556Z,102388.52
2019-02-05T12:33:06.463Z,102389.39
2019-02-05T12:35:35.829Z,102394.77
2019-02-05T12:38:05.948Z,102392.09
2019-02-05T12:40:35.716Z,102395.97
2019-02-05T12:43:05.576Z,102398.00
2019-02-05T12:45:35.366Z,102384.47
2019-02-05T12:48:04.598Z,102386.05
2019-02-05T12:50:35.015Z,102393.75
2019-02-05T12:53:04.635Z,102386.41
2019-02-05T12:55:33.927Z,102383.38
2019-02-05T12:58:03.124Z,102386.36
2019-02-05T13:00:37.983Z,102382.64
2019-02-05T13:03:08.090Z,102381.16
2019-02-05T13:05:37.344Z,102381.48
2019-02-05T13:08:07.048Z,102377.27
2019-02-05T13:10:38.099Z,102376.77
2019-02-05T13:13:08.211Z,102384.86
2019-02-05T13:15:37.555Z,102386.64
2019-02-05T13:18:07.308Z,102387.08
2019-02-05T13:20:36.566Z,102381.53
2019-02-05T13:23:06.686Z,102378.34
2019-02-05T13:25:36.014Z,102379.94
2019-02-05T13:28:07.096Z,102380.45
2019-02-05T13:30:37.323Z,102375.09
2019-02-05T13:33:07.554Z,102378.08
2019-02-05T13:35:37.061Z,102379.37
2019-02-05T13:38:06.878Z,102382.77
2019-02-05T13:40:36.218Z,102377.56
2019-02-05T13:43:05.986Z,102372.33
2019-02-05T13:45:35.876Z,102377.54
2019-02-05T13:48:06.655Z,102375.45
2019-02-05T13:50:36.200Z,102378.03
2019-02-05T13:53:06.271Z,102372.91
2019-02-05T13:55:38.209Z,102374.55
2019-02-05T13:58:07.502Z,102372.41
2019-02-05T14:00:45.253Z,102378.72
2019-02-05T14:03:14.453Z,102379.00
2019-02-05T14:05:43.737Z,102379.47
2019-02-05T14:08:13.125Z,102370.83
2019-02-05T14:10:42.470Z,102371.66
2019-02-05T14:13:11.653Z,102377.34
2019-02-05T14:15:42.055Z,102374.46
2019-02-05T14:18:11.978Z,102379.77
2019-02-05T14:20:41.238Z,102381.55
2019-02-05T14:23:10.443Z,102377.56
2019-02-05T14:25:39.723Z,102384.06
2019-02-05T14:28:09.342Z,102379.84
2019-02-05T14:31:02.177Z,102379.00
2019-02-05T14:33:32.176Z,102381.98
2019-02-05T14:36:02.356Z,102380.30
2019-02-05T14:38:31.554Z,102384.73
2019-02-05T14:41:00.770Z,102383.02
2019-02-05T14:43:30.012Z,102385.98
2019-02-05T14:45:59.244Z,102381.72
2019-02-05T14:48:28.489Z,102381.25
2019-02-05T14:50:57.699Z,102385.98
2019-02-05T14:53:26.953Z,102374.73
2019-02-05T14:55:56.240Z,102390.66
2019-02-05T14:58:25.465Z,102383.43
2019-02-05T15:00:54.877Z,102382.16
2019-02-05T15:03:24.059Z,102384.81
2019-02-05T15:05:53.754Z,102381.39
2019-02-05T15:08:22.918Z,102380.09
2019-02-05T15:10:52.540Z,102379.70
2019-02-05T15:13:21.853Z,102380.59
2019-02-05T15:15:51.051Z,102384.46
2019-02-05T15:18:22.296Z,102380.12
2019-02-05T15:20:51.784Z,102382.66
2019-02-05T15:23:21.580Z,102378.77
2019-02-05T15:25:51.147Z,102381.80
2019-02-05T15:28:20.415Z,102379.70
2019-02-05T15:30:50.027Z,102384.48
2019-02-05T15:33:48.293Z,102381.53
2019-02-05T15:36:34.897Z,102379.74
2019-02-05T15:39:13.785Z,102383.61
2019-02-05T15:41:43.015Z,102374.98
2019-02-05T15:44:12.556Z,102365.86
2019-02-05T15:46:42.663Z,102365.89
2019-02-05T15:49:12.060Z,102364.59
2019-02-05T15:51:41.312Z,102365.13
2019-02-05T15:54:10.543Z,102371.23
2019-02-05T15:56:39.711Z,102373.45
2019-02-05T15:59:09.389Z,102380.83
2019-02-05T16:01:38.672Z,102383.02
2019-02-05T16:04:07.867Z,102386.88
2019-02-05T16:06:37.085Z,102388.22
2019-02-05T16:09:08.805Z,102387.36
2019-02-05T16:11:38.006Z,102379.61
2019-02-05T16:14:07.650Z,102380.05
2019-02-05T16:16:36.901Z,102376.22
2019-02-05T16:19:06.077Z,102380.11
2019-02-05T16:21:35.503Z,102377.14
2019-02-05T16:24:04.790Z,102371.56
2019-02-05T16:26:34.054Z,102365.94
2019-02-05T16:29:03.620Z,102356.45
2019-02-05T16:31:32.822Z,102366.00
2019-02-05T16:34:02.502Z,102368.63
2019-02-05T16:36:31.715Z,102367.77
2019-02-05T16:39:00.885Z,102369.97
2019-02-05T16:41:30.202Z,102369.55
2019-02-05T16:43:59.676Z,102370.84
2019-02-05T16:46:29.074Z,102378.23
2019-02-05T16:48:58.463Z,102376.53
2019-02-05T16:51:27.634Z,102369.64
2019-02-05T16:53:56.962Z,102375.33
2019-02-05T16:56:26.126Z,102374.42
2019-02-05T16:58:55.364Z,102378.73
2019-02-05T17:01:24.640Z,102380.47
2019-02-05T17:03:53.871Z,102383.95
2019-02-05T17:06:23.156Z,102388.28
2019-02-05T17:08:52.309Z,102384.83
2019-02-05T17:11:21.730Z,102389.17
2019-02-05T17:13:50.888Z,102390.47
2019-02-05T17:16:20.183Z,102385.28
2019-02-05T17:18:49.563Z,102389.63
2019-02-05T17:21:18.753Z,102394.34
2019-02-05T17:23:47.926Z,102391.80
2019-02-05T17:26:17.175Z,102396.09
2019-02-05T17:28:46.341Z,102389.19
2019-02-05T17:31:15.559Z,102395.26
2019-02-05T17:33:44.866Z,102395.22
2019-02-05T17:36:14.143Z,102395.24
2019-02-05T17:38:43.411Z,102394.82
2019-02-05T17:41:12.642Z,102402.17
2019-02-05T17:43:41.891Z,102403.53
2019-02-05T17:46:11.087Z,102408.27
2019-02-05T17:48:40.513Z,102398.81
2019-02-05T17:51:09.929Z,102395.34
2019-02-05T17:53:39.174Z,102392.75
2019-02-05T17:56:08.452Z,102384.57
2019-02-05T17:58:37.738Z,102383.70
2019-02-05T18:01:10.216Z,102389.33
2019-02-05T18:03:39.653Z,102384.16
2019-02-05T18:06:08.962Z,102382.02
2019-02-05T18:08:38.314Z,102377.28
2019-02-05T18:11:08.140Z,102376.84
2019-02-05T18:13:37.603Z,102374.69
2019-02-05T18:16:27.714Z,102373.41
2019-02-05T18:18:56.955Z,102364.77
2019-02-05T18:21:28.444Z,102364.83
2019-02-05T18:23:57.715Z,102361.81
2019-02-05T18:26:27.041Z,102358.80
2019-02-05T18:28:56.270Z,102358.38
2019-02-05T18:31:27.168Z,102360.07
2019-02-05T18:33:56.528Z,102364.44
2019-02-05T18:36:28.566Z,102359.69
2019-02-05T18:38:58.206Z,102356.20
2019-02-05T18:41:27.502Z,102355.77
2019-02-05T18:43:56.796Z,102357.11
2019-02-05T18:46:26.299Z,102362.23
2019-02-05T18:49:04.539Z,102354.95
2019-02-05T18:51:26.513Z,102362.27
2019-02-05T18:53:56.002Z,102366.16
2019-02-05T18:56:25.436Z,102369.64
2019-02-05T18:58:54.998Z,102363.66
2019-02-05T19:01:24.444Z,102360.16
2019-02-05T19:03:53.844Z,102364.11
2019-02-05T19:06:24.321Z,102364.88
2019-02-05T19:08:56.285Z,102367.03
2019-02-05T19:11:25.611Z,102370.89
2019-02-05T19:13:55.099Z,102368.77
2019-02-05T19:16:25.229Z,102377.37
2019-02-05T19:18:54.764Z,102374.36
2019-02-05T19:21:24.097Z,102372.19
2019-02-05T19:24:03.530Z,102369.16
2019-02-05T19:26:41.139Z,102371.75
2019-02-05T19:29:18.478Z,102368.29
2019-02-05T19:31:42.482Z,102373.06
2019-02-05T19:34:13.305Z,102370.88
2019-02-05T19:36:44.227Z,102362.67
2019-02-05T19:39:13.581Z,102358.81
2019-02-05T19:41:45.513Z,102357.95
2019-02-05T19:44:14.810Z,102362.26
2019-02-05T19:47:05.371Z,102361.42
2019-02-05T19:49:39.818Z,102361.80
2019-02-05T19:52:09.307Z,102352.34
2019-02-05T19:54:38.724Z,102349.24
2019-02-05T19:57:08.025Z,102351.38
2019-02-05T19:59:38.495Z,102350.97
2019-02-05T20:02:08.763Z,102349.66
2019-02-05T20:04:38.166Z,102344.05
2019-02-05T20:07:08.196Z,102353.13
2019-02-05T20:09:37.626Z,102344.06
2019-02-05T20:12:08.154Z,102350.53
2019-02-05T20:14:37.572Z,102348.00
2019-02-05T20:17:07.560Z,102348.44
2019-02-05T20:19:36.893Z,102347.60
2019-02-05T20:22:06.529Z,102355.80
2019-02-05T20:24:37.116Z,102355.33
2019-02-05T20:27:06.694Z,102355.33
2019-02-05T20:29:36.255Z,102356.63
2019-02-05T20:32:08.583Z,102353.16
2019-02-05T20:34:37.966Z,102356.20
2019-02-05T20:37:07.673Z,102352.36
2019-02-05T20:39:37.482Z,102347.60
2019-02-05T20:42:07.620Z,102346.78
2019-02-05T20:44:37.037Z,102353.69
2019-02-05T20:47:06.790Z,102355.89
2019-02-05T20:49:37.629Z,102357.22
2019-02-05T20:52:07.376Z,102367.15
2019-02-05T20:54:36.551Z,102359.42
2019-02-05T20:57:06.067Z,102365.89
2019-02-05T20:59:35.381Z,102363.30
2019-02-05T21:02:04.770Z,102370.64
2019-02-05T21:04:35.555Z,102369.79
2019-02-05T21:07:07.811Z,102374.96
2019-02-05T21:09:37.187Z,102362.44
2019-02-05T21:12:06.742Z,102355.98
2019-02-05T21:14:36.002Z,102348.20
2019-02-05T21:17:07.831Z,102345.97
2019-02-05T21:19:37.134Z,102354.17
2019-02-05T21:22:08.941Z,102374.78
2019-02-05T21:24:38.351Z,102378.66
2019-02-05T21:27:07.823Z,102375.22
2019-02-05T21:29:37.413Z,102369.69
2019-02-05T21:32:06.645Z,102358.04
2019-02-05T21:34:37.832Z,102346.84
2019-02-05T21:37:09.434Z,102351.17
2019-02-05T21:39:38.777Z,102350.17
2019-02-05T21:42:08.079Z,102339.07
2019-02-05T21:44:37.280Z,102349.37
2019-02-05T21:47:06.563Z,102334.40
2019-02-05T21:49:35.876Z,102339.17
2019-02-05T21:52:05.184Z,102338.27
2019-02-05T21:54:34.374Z,102337.38
2019-02-05T21:57:03.694Z,102329.57
2019-02-05T21:59:32.919Z,102326.20
2019-02-05T22:02:02.180Z,102333.11
2019-02-05T22:04:31.649Z,102330.52
2019-02-05T22:07:00.878Z,102329.30
2019-02-05T22:09:30.073Z,102330.64
2019-02-05T22:11:59.415Z,102330.27
2019-02-05T22:14:28.665Z,102330.29
2019-02-05T22:16:57.885Z,102326.41
2019-02-05T22:19:27.426Z,102321.67
2019-02-05T22:21:56.635Z,102318.20
2019-02-05T22:24:25.793Z,102318.23
2019-02-05T22:26:54.972Z,102322.53
2019-02-05T22:29:24.190Z,102317.77
2019-02-05T22:31:53.396Z,102317.75
2019-02-05T22:34:22.854Z,102314.68
2019-02-05T22:36:52.017Z,102312.06
2019-02-05T22:39:21.615Z,102309.81
2019-02-05T22:41:50.856Z,102302.58
2019-02-05T22:44:20.271Z,102298.68
2019-02-05T22:46:49.828Z,102295.13
2019-02-05T22:49:19.042Z,102295.55
2019-02-05T22:51:48.577Z,102298.59
2019-02-05T22:54:17.864Z,102300.78
2019-02-05T22:56:47.449Z,102296.48
2019-02-05T22:59:17.146Z,102291.36
2019-02-05T23:01:55.599Z,102288.73
2019-02-05T23:04:51.307Z,102277.55
2019-02-05T23:07:22.360Z,102281.45
2019-02-05T23:10:21.949Z,102278.84
